Kezdőlap
METAR-TAF:

METAR-TAF

Repülőterek :

Taskent, Üzbegisztán

földrajzi szélesség: 41-16N, földrajzi hosszúság: 069-16E, magasság: 489 m

Jelenlegi meteorológiai megfigyelések

A jelentés 40 perccel ezelõtt készült, 03:00 UTC
Déli szél 4 kt, délkeleti és dél-délnyugati között változik
Hőmérséklet 27°C
Páratartalom 37%
Légköri nyomás 1010 hPa
Látótávolság 10 km, vagy több
felhőtlen 1500 m magasságban, és nincs gomolyfelhõ

METAR: UTTT 150300Z 17004KT 130V200 CAVOK 27/11 Q1010 R26R/CLRD70 NOSIG

Idő: 08:40 (03:40 UTC)

Előrejelzés

A jelentés 4 órával és 40 perccel ezelõtt készült, 23:00 UTC
Az előrejelzés 15-én 00 óra UTC és 15-én 24 óra UTC között érvényes
Délnyugati szél 10 kt
Látótávolság: 7000 m
15-én 06 óra UTC és 15-én 16 óra UTC között ideiglenes
Nyugat-északnyugati szél 15 kt

TAF: UTTT 142300Z 1500/1524 22010KT 7000 NSC TX37/1510Z TEMPO 1506/1516 30015KT

Meteorológiai megfigyelések és előrejelzések több, mint 4000 repülőtéren (METAR és TAF jelentéseket).

A térképen piros és sárga pontok jelzik az elérhető meteorológiai állomásokat.

Mozgassa az egeret a pont fölött, hogy megjelenjen az állomás neve.

Azután kattintson az időjárási megfigyelések és előrejelzések megtekintéséhez.

A térkép megváltoztatása: kattintson a fekete keresztel jelölt zöld gombra ráközelítéshez, a vonallal jelölt zöld gombra távolításhoz, vagy a zöld nyilakra a szomszédos térképek eléréséhez.


METAR-TAF: